createdAt,value
2023-04-02T00:01:19.492Z,96273.13
2023-04-02T00:03:59.695Z,96270.52
2023-04-02T00:06:33.234Z,96272.66
2023-04-02T00:09:13.633Z,96273.14
2023-04-02T00:11:50.838Z,96274.96
2023-04-02T00:14:23.406Z,96275.33
2023-04-02T00:16:53.303Z,96277.20
2023-04-02T00:19:36.187Z,96280.66
2023-04-02T00:22:07.416Z,96277.04
2023-04-02T00:24:35.700Z,96274.59
2023-04-02T00:27:03.773Z,96276.73
2023-04-02T00:29:31.939Z,96276.33
2023-04-02T00:32:01.923Z,96276.48
2023-04-02T00:34:33.008Z,96275.86
2023-04-02T00:37:02.034Z,96279.34
2023-04-02T00:39:32.950Z,96280.98
2023-04-02T00:42:07.836Z,96282.92
2023-04-02T00:44:43.000Z,96284.91
2023-04-02T00:47:18.968Z,96287.00
2023-04-02T00:49:54.719Z,96288.26
2023-04-02T00:52:25.024Z,96293.23
2023-04-02T00:54:59.364Z,96293.66
2023-04-02T00:57:28.349Z,96294.61
2023-04-02T01:00:03.911Z,96300.05
2023-04-02T01:02:38.380Z,96300.27
2023-04-02T01:05:11.485Z,96297.80
2023-04-02T01:08:04.788Z,96302.77
2023-04-02T01:10:36.517Z,96309.10
2023-04-02T01:13:22.529Z,96311.67
2023-04-02T01:16:29.872Z,96314.19
2023-04-02T01:19:07.517Z,96310.84
2023-04-02T01:21:37.128Z,96310.58
2023-04-02T01:24:07.620Z,96311.10
2023-04-02T01:26:49.241Z,96314.98
2023-04-02T01:29:20.347Z,96314.75
2023-04-02T01:31:48.810Z,96317.48
2023-04-02T01:34:23.767Z,96320.30
2023-04-02T01:37:27.610Z,96321.10
2023-04-02T01:40:14.839Z,96318.27
2023-04-02T01:42:49.679Z,96319.78
2023-04-02T01:45:19.655Z,96320.67
2023-04-02T01:47:49.165Z,96323.66
2023-04-02T01:50:39.596Z,96332.09
2023-04-02T01:53:10.618Z,96333.45
2023-04-02T01:55:38.664Z,96338.70
2023-04-02T01:58:11.483Z,96340.94
2023-04-02T02:00:52.349Z,96342.25
2023-04-02T02:03:21.870Z,96344.08
2023-04-02T02:05:51.228Z,96346.54
2023-04-02T02:08:41.437Z,96349.41
2023-04-02T02:11:14.796Z,96348.89
2023-04-02T02:13:56.387Z,96349.61
2023-04-02T02:16:30.176Z,96353.13
2023-04-02T02:19:02.946Z,96353.91
2023-04-02T02:21:40.052Z,96360.03
2023-04-02T02:24:29.273Z,96362.28
2023-04-02T02:27:06.464Z,96361.60
2023-04-02T02:29:37.493Z,96363.23
2023-04-02T02:32:05.702Z,96366.16
2023-04-02T02:34:37.826Z,96363.75
2023-04-02T02:37:10.525Z,96370.14
2023-04-02T02:39:45.768Z,96373.19
2023-04-02T02:42:18.169Z,96375.90
2023-04-02T02:44:49.460Z,96381.23
2023-04-02T02:47:25.817Z,96382.17
2023-04-02T02:49:58.856Z,96383.38
2023-04-02T02:52:29.466Z,96384.42
2023-04-02T02:55:06.716Z,96388.61
2023-04-02T02:58:00.118Z,96388.09
2023-04-02T03:00:31.168Z,96389.81
2023-04-02T03:03:00.964Z,96387.41
2023-04-02T03:05:31.376Z,96391.23
2023-04-02T03:08:04.142Z,96392.18
2023-04-02T03:10:35.417Z,96388.77
2023-04-02T03:13:21.989Z,96389.71
2023-04-02T03:16:09.514Z,96389.36
2023-04-02T03:18:45.651Z,96393.84
2023-04-02T03:21:39.320Z,96397.67
2023-04-02T03:24:35.376Z,96396.53
2023-04-02T03:27:43.792Z,96403.17
2023-04-02T03:30:37.107Z,96408.98
2023-04-02T03:33:28.126Z,96410.52
2023-04-02T03:36:30.647Z,96416.27
2023-04-02T03:39:16.512Z,96422.98
2023-04-02T03:41:48.562Z,96427.60
2023-04-02T03:44:26.804Z,96432.26
2023-04-02T03:46:58.309Z,96430.80
2023-04-02T03:49:56.346Z,96434.31
2023-04-02T03:52:27.083Z,96438.66
2023-04-02T03:54:57.491Z,96436.67
2023-04-02T03:57:35.551Z,96436.16
2023-04-02T04:00:14.523Z,96438.83
2023-04-02T04:02:53.743Z,96445.79
2023-04-02T04:05:30.432Z,96450.35
2023-04-02T04:08:08.408Z,96451.50
2023-04-02T04:10:37.162Z,96458.08
2023-04-02T04:13:08.582Z,96464.83
2023-04-02T04:15:39.062Z,96462.59
2023-04-02T04:18:19.453Z,96465.98
2023-04-02T04:20:56.830Z,96471.98
2023-04-02T04:23:31.794Z,96477.96
2023-04-02T04:26:09.622Z,96481.74
2023-04-02T04:28:45.039Z,96486.71
2023-04-02T04:31:18.141Z,96484.98
2023-04-02T04:33:50.730Z,96490.48
2023-04-02T04:36:27.950Z,96495.52
2023-04-02T04:39:04.525Z,96498.56
2023-04-02T04:41:35.708Z,96498.78
2023-04-02T04:44:14.801Z,96495.70
2023-04-02T04:46:47.493Z,96494.55
2023-04-02T04:49:26.051Z,96492.04
2023-04-02T04:51:56.413Z,96494.35
2023-04-02T04:54:26.352Z,96493.45
2023-04-02T04:57:04.227Z,96496.88
2023-04-02T04:59:41.632Z,96501.67
2023-04-02T05:02:19.537Z,96500.73
2023-04-02T05:04:51.993Z,96502.41
2023-04-02T05:07:22.804Z,96499.90
2023-04-02T05:10:21.720Z,96501.10
2023-04-02T05:12:54.628Z,96499.11
2023-04-02T05:15:38.561Z,96501.46
2023-04-02T05:18:30.572Z,96499.69
2023-04-02T05:21:18.152Z,96500.98
2023-04-02T05:24:18.250Z,96502.60
2023-04-02T05:26:46.845Z,96501.92
2023-04-02T05:29:27.578Z,96507.00
2023-04-02T05:32:03.664Z,96502.25
2023-04-02T05:34:34.112Z,96507.38
2023-04-02T05:37:07.185Z,96509.73
2023-04-02T05:39:37.067Z,96508.23
2023-04-02T05:42:06.634Z,96511.16
2023-04-02T05:45:03.557Z,96512.32
2023-04-02T05:47:32.775Z,96511.52
2023-04-02T05:50:10.151Z,96514.21
2023-04-02T05:52:46.407Z,96514.42
2023-04-02T05:55:29.528Z,96519.34
2023-04-02T05:58:29.624Z,96520.27
2023-04-02T06:01:01.739Z,96526.20
2023-04-02T06:03:32.558Z,96525.88
2023-04-02T06:06:05.259Z,96534.27
2023-04-02T06:08:43.543Z,96537.77
2023-04-02T06:11:33.189Z,96542.23
2023-04-02T06:14:03.461Z,96549.15
2023-04-02T06:16:33.447Z,96556.98
2023-04-02T06:19:06.094Z,96560.20
2023-04-02T06:21:34.623Z,96561.08
2023-04-02T06:24:03.836Z,96563.52
2023-04-02T06:26:37.317Z,96563.00
2023-04-02T06:29:09.714Z,96565.00
2023-04-02T06:32:08.910Z,96574.43
2023-04-02T06:34:41.572Z,96579.52
2023-04-02T06:37:18.381Z,96583.04
2023-04-02T06:39:47.876Z,96582.35
2023-04-02T06:42:31.344Z,96584.92
2023-04-02T06:45:31.202Z,96588.05
2023-04-02T06:48:17.409Z,96589.52
2023-04-02T06:51:01.065Z,96591.67
2023-04-02T06:53:51.912Z,96595.70
2023-04-02T06:56:36.848Z,96598.64
2023-04-02T06:59:07.619Z,96599.13
2023-04-02T07:01:40.295Z,96602.34
2023-04-02T07:04:10.462Z,96604.55
2023-04-02T07:06:42.517Z,96601.56
2023-04-02T07:09:12.736Z,96601.41
2023-04-02T07:11:44.292Z,96603.20
2023-04-02T07:14:13.182Z,96605.39
2023-04-02T07:16:41.436Z,96611.70
2023-04-02T07:19:27.715Z,96613.31
2023-04-02T07:21:58.712Z,96620.16
2023-04-02T07:24:33.156Z,96621.23
2023-04-02T07:27:07.294Z,96620.45
2023-04-02T07:29:35.609Z,96624.50
2023-04-02T07:32:03.883Z,96626.75
2023-04-02T07:34:32.605Z,96630.72
2023-04-02T07:37:05.970Z,96632.39
2023-04-02T07:39:36.804Z,96638.11
2023-04-02T07:42:06.616Z,96644.83
2023-04-02T07:44:36.113Z,96645.81
2023-04-02T07:47:04.424Z,96648.27
2023-04-02T07:49:35.532Z,96646.11
2023-04-02T07:52:04.039Z,96643.60
2023-04-02T07:54:32.248Z,96648.64
2023-04-02T07:57:00.568Z,96649.19
2023-04-02T07:59:28.797Z,96649.30
2023-04-02T08:01:57.906Z,96652.88
2023-04-02T08:04:27.361Z,96654.40
2023-04-02T08:06:56.944Z,96651.08
2023-04-02T08:09:25.162Z,96656.17
2023-04-02T08:11:55.273Z,96654.05
2023-04-02T08:14:23.820Z,96658.09
2023-04-02T08:16:53.731Z,96659.41
2023-04-02T08:19:25.179Z,96662.82
2023-04-02T08:21:53.730Z,96665.17
2023-04-02T08:24:21.879Z,96667.46
2023-04-02T08:26:51.735Z,96665.88
2023-04-02T08:29:20.924Z,96664.58
2023-04-02T08:31:50.245Z,96664.23
2023-04-02T08:34:18.243Z,96668.45
2023-04-02T08:36:46.407Z,96667.33
2023-04-02T08:39:14.952Z,96675.52
2023-04-02T08:42:05.051Z,96672.51
2023-04-02T08:44:55.119Z,96679.14
2023-04-02T08:47:26.065Z,96681.21
2023-04-02T08:50:02.079Z,96682.67
2023-04-02T08:52:35.892Z,96687.09
2023-04-02T08:55:12.700Z,96690.04
2023-04-02T08:57:46.565Z,96689.80
2023-04-02T09:00:15.810Z,96698.16
2023-04-02T09:02:52.119Z,96698.81
2023-04-02T09:05:26.557Z,96700.40
2023-04-02T09:07:56.478Z,96705.55
2023-04-02T09:10:35.701Z,96709.27
2023-04-02T09:13:14.422Z,96712.08
2023-04-02T09:15:43.533Z,96715.58
2023-04-02T09:18:18.505Z,96714.15
2023-04-02T09:20:50.287Z,96717.71
2023-04-02T09:23:22.384Z,96714.11
2023-04-02T09:26:03.577Z,96721.33
2023-04-02T09:28:32.609Z,96725.46
2023-04-02T09:31:21.984Z,96728.17
2023-04-02T09:33:51.637Z,96731.77
2023-04-02T09:36:33.045Z,96732.64
2023-04-02T09:39:06.623Z,96729.94
2023-04-02T09:41:36.858Z,96735.88
2023-04-02T09:44:31.684Z,96736.61
2023-04-02T09:47:03.982Z,96741.63
2023-04-02T09:49:34.406Z,96739.48
2023-04-02T09:52:07.429Z,96740.77
2023-04-02T09:54:41.690Z,96744.94
2023-04-02T09:57:24.217Z,96747.82
2023-04-02T10:00:25.319Z,96748.09
2023-04-02T10:03:18.954Z,96745.86
2023-04-02T10:05:47.877Z,96747.10
2023-04-02T10:08:24.879Z,96752.77
2023-04-02T10:10:55.385Z,96754.25
2023-04-02T10:13:35.342Z,96755.73
2023-04-02T10:16:33.190Z,96753.48
2023-04-02T10:19:04.817Z,96753.52
2023-04-02T10:21:37.378Z,96754.14
2023-04-02T10:24:12.217Z,96747.83
2023-04-02T10:26:58.823Z,96750.01
2023-04-02T10:30:02.276Z,96754.33
2023-04-02T10:32:35.402Z,96757.17
2023-04-02T10:35:08.932Z,96762.69
2023-04-02T10:37:47.386Z,96762.88
2023-04-02T10:40:30.193Z,96768.08
2023-04-02T10:43:01.128Z,96777.56
2023-04-02T10:45:46.599Z,96782.34
2023-04-02T10:48:17.936Z,96784.58
2023-04-02T10:50:51.971Z,96789.15
2023-04-02T10:53:21.735Z,96790.63
2023-04-02T10:55:54.182Z,96788.64
2023-04-02T10:59:23.193Z,96791.80
2023-04-02T11:01:51.819Z,96795.56
2023-04-02T11:04:36.421Z,96795.85
2023-04-02T11:07:14.477Z,96794.88
2023-04-02T11:09:45.122Z,96794.77
2023-04-02T11:12:26.314Z,96794.00
2023-04-02T11:14:59.626Z,96793.73
2023-04-02T11:17:27.907Z,96796.61
2023-04-02T11:19:56.881Z,96802.48
2023-04-02T11:22:24.943Z,96805.87
2023-04-02T11:24:55.016Z,96808.21
2023-04-02T11:27:33.798Z,96809.16
2023-04-02T11:30:25.829Z,96810.89
2023-04-02T11:32:56.994Z,96812.59
2023-04-02T11:35:31.429Z,96812.55
2023-04-02T11:38:09.639Z,96816.73
2023-04-02T11:40:42.196Z,96819.62
2023-04-02T11:43:36.208Z,96822.08
2023-04-02T11:46:41.567Z,96827.23
2023-04-02T11:49:36.455Z,96833.61
2023-04-02T11:52:11.906Z,96840.52
2023-04-02T11:54:41.362Z,96841.95
2023-04-02T11:57:42.664Z,96841.70
2023-04-02T12:00:19.566Z,96851.04
2023-04-02T12:02:54.085Z,96851.94
2023-04-02T12:05:26.587Z,96854.63
2023-04-02T12:08:24.577Z,96853.99
2023-04-02T12:10:54.293Z,96854.11
2023-04-02T12:13:41.326Z,96852.16
2023-04-02T12:16:13.348Z,96850.63
2023-04-02T12:18:51.210Z,96849.95
2023-04-02T12:21:20.443Z,96850.78
2023-04-02T12:23:48.528Z,96851.92
2023-04-02T12:26:30.380Z,96852.77
2023-04-02T12:29:26.805Z,96851.59
2023-04-02T12:31:55.756Z,96852.98
2023-04-02T12:34:25.658Z,96853.14
2023-04-02T12:37:04.498Z,96855.52
2023-04-02T12:39:33.737Z,96856.98
2023-04-02T12:42:28.296Z,96860.77
2023-04-02T12:44:56.961Z,96859.46
2023-04-02T12:47:28.691Z,96862.89
2023-04-02T12:49:57.836Z,96863.69
2023-04-02T12:52:29.610Z,96861.27
2023-04-02T12:55:00.232Z,96864.17
2023-04-02T12:57:31.075Z,96864.50
2023-04-02T13:00:24.627Z,96868.27
2023-04-02T13:03:17.157Z,96869.41
2023-04-02T13:05:56.336Z,96871.35
2023-04-02T13:08:27.466Z,96871.52
2023-04-02T13:10:58.071Z,96875.54
2023-04-02T13:13:30.307Z,96881.10
2023-04-02T13:16:26.125Z,96887.08
2023-04-02T13:19:26.283Z,96892.77
2023-04-02T13:21:55.581Z,96894.45
2023-04-02T13:24:25.712Z,96897.40
2023-04-02T13:26:56.234Z,96896.23
2023-04-02T13:29:25.535Z,96897.45
2023-04-02T13:31:55.274Z,96895.92
2023-04-02T13:34:23.691Z,96898.91
2023-04-02T13:36:57.463Z,96903.62
2023-04-02T13:39:26.256Z,96907.39
2023-04-02T13:41:57.390Z,96910.80
2023-04-02T13:44:28.278Z,96912.15
2023-04-02T13:46:57.438Z,96916.52
2023-04-02T13:49:27.017Z,96921.52
2023-04-02T13:51:59.925Z,96921.57
2023-04-02T13:54:33.802Z,96922.05
2023-04-02T13:57:01.846Z,96922.98
2023-04-02T13:59:30.483Z,96926.25
2023-04-02T14:02:03.134Z,96930.62
2023-04-02T14:04:33.977Z,96934.67
2023-04-02T14:07:23.414Z,96933.15
2023-04-02T14:10:15.687Z,96932.00
2023-04-02T14:13:19.601Z,96936.84
2023-04-02T14:16:17.249Z,96937.74
2023-04-02T14:19:34.098Z,96939.63
2023-04-02T14:22:03.953Z,96943.70
2023-04-02T14:24:39.657Z,96941.68
2023-04-02T14:27:23.183Z,96949.21
2023-04-02T14:30:12.752Z,96947.23
2023-04-02T14:32:54.137Z,96951.27
2023-04-02T14:35:33.638Z,96954.16
2023-04-02T14:38:20.616Z,96952.01
2023-04-02T14:41:02.435Z,96956.15
2023-04-02T14:43:51.252Z,96960.15
2023-04-02T14:46:19.379Z,96961.10
2023-04-02T14:49:23.253Z,96964.04
2023-04-02T14:51:59.083Z,96966.37
2023-04-02T14:54:36.222Z,96967.71
2023-04-02T14:57:17.144Z,96966.80
2023-04-02T14:59:49.161Z,96967.80
2023-04-02T15:02:49.895Z,96964.94
2023-04-02T15:05:56.724Z,96968.24
2023-04-02T15:08:35.317Z,96965.89
2023-04-02T15:11:22.821Z,96972.89
2023-04-02T15:14:03.979Z,96975.26
2023-04-02T15:16:36.535Z,96976.89
2023-04-02T15:19:11.061Z,96975.02
2023-04-02T15:21:57.543Z,96974.98
2023-04-02T15:24:51.672Z,96983.54
2023-04-02T15:27:34.978Z,96986.13
2023-04-02T15:30:09.196Z,96992.91
2023-04-02T15:32:39.937Z,96996.27
2023-04-02T15:35:48.869Z,96999.52
2023-04-02T15:38:19.440Z,97001.00
2023-04-02T15:40:57.714Z,97004.28
2023-04-02T15:43:30.071Z,97007.73
2023-04-02T15:46:12.588Z,97010.09
2023-04-02T15:48:44.278Z,97013.45
2023-04-02T15:51:48.484Z,97016.65
2023-04-02T15:54:22.838Z,97021.98
2023-04-02T15:57:11.876Z,97026.58
2023-04-02T16:00:04.153Z,97033.61
2023-04-02T16:02:49.417Z,97040.52
2023-04-02T16:05:37.095Z,97049.89
2023-04-02T16:08:11.269Z,97053.02
2023-04-02T16:10:42.477Z,97051.21
2023-04-02T16:13:26.964Z,97052.96
2023-04-02T16:16:05.669Z,97055.01
2023-04-02T16:18:52.826Z,97060.30
2023-04-02T16:21:22.771Z,97064.73
2023-04-02T16:23:51.147Z,97067.82
2023-04-02T16:26:33.799Z,97067.18
2023-04-02T16:29:11.614Z,97072.68
2023-04-02T16:32:05.674Z,97079.73
2023-04-02T16:34:55.027Z,97081.92
2023-04-02T16:37:31.145Z,97085.02
2023-04-02T16:40:11.303Z,97083.42
2023-04-02T16:43:00.234Z,97087.59
2023-04-02T16:45:36.198Z,97095.02
2023-04-02T16:48:18.616Z,97097.48
2023-04-02T16:51:17.670Z,97107.70
2023-04-02T16:54:04.568Z,97106.71
2023-04-02T16:57:09.878Z,97112.36
2023-04-02T17:00:15.553Z,97111.31
2023-04-02T17:03:22.152Z,97114.14
2023-04-02T17:06:08.981Z,97117.85
2023-04-02T17:09:06.690Z,97120.09
2023-04-02T17:12:00.122Z,97120.16
2023-04-02T17:14:34.750Z,97123.54
2023-04-02T17:17:03.680Z,97118.80
2023-04-02T17:19:32.569Z,97124.55
2023-04-02T17:22:02.449Z,97129.89
2023-04-02T17:24:41.795Z,97130.84
2023-04-02T17:27:25.459Z,97134.30
2023-04-02T17:29:58.750Z,97134.88
2023-04-02T17:32:30.215Z,97136.88
2023-04-02T17:35:32.149Z,97140.56
2023-04-02T17:38:38.014Z,97138.48
2023-04-02T17:41:42.856Z,97142.57
2023-04-02T17:44:39.172Z,97143.80
2023-04-02T17:47:23.412Z,97147.26
2023-04-02T17:49:57.679Z,97148.95
2023-04-02T17:52:41.405Z,97151.56
2023-04-02T17:55:18.356Z,97156.63
2023-04-02T17:58:44.267Z,97157.38
2023-04-02T18:01:41.407Z,97159.01
2023-04-02T18:04:15.696Z,97156.46
2023-04-02T18:07:13.433Z,97161.50
2023-04-02T18:09:51.101Z,97163.02
2023-04-02T18:12:32.124Z,97160.16
2023-04-02T18:15:30.952Z,97164.08
2023-04-02T18:18:05.120Z,97164.91
2023-04-02T18:20:55.993Z,97167.55
2023-04-02T18:23:36.996Z,97168.31
2023-04-02T18:26:16.898Z,97171.98
2023-04-02T18:29:17.268Z,97169.52
2023-04-02T18:32:15.259Z,97173.27
2023-04-02T18:35:08.329Z,97174.05
2023-04-02T18:38:18.279Z,97179.89
2023-04-02T18:41:05.762Z,97182.55
2023-04-02T18:43:51.939Z,97183.83
2023-04-02T18:46:22.804Z,97187.09
2023-04-02T18:48:57.056Z,97187.30
2023-04-02T18:51:27.229Z,97194.30
2023-04-02T18:54:16.174Z,97198.73
2023-04-02T18:56:44.602Z,97199.65
2023-04-02T18:59:27.040Z,97198.17
2023-04-02T19:01:55.543Z,97204.52
2023-04-02T19:04:28.632Z,97203.23
2023-04-02T19:07:07.102Z,97210.63
2023-04-02T19:09:36.151Z,97206.16
2023-04-02T19:12:24.584Z,97209.21
2023-04-02T19:14:59.699Z,97212.20
2023-04-02T19:17:36.179Z,97214.20
2023-04-02T19:20:11.750Z,97211.02
2023-04-02T19:22:52.086Z,97210.62
2023-04-02T19:25:37.890Z,97210.70
2023-04-02T19:28:23.593Z,97209.45
2023-04-02T19:31:09.367Z,97214.48
2023-04-02T19:33:52.651Z,97216.98
2023-04-02T19:36:47.286Z,97217.02
2023-04-02T19:39:31.795Z,97212.52
2023-04-02T19:42:21.006Z,97219.66
2023-04-02T19:44:50.678Z,97216.40
2023-04-02T19:47:19.012Z,97217.15
2023-04-02T19:49:47.066Z,97219.50
2023-04-02T19:52:14.975Z,97219.64
2023-04-02T19:54:43.229Z,97216.11
2023-04-02T19:57:15.041Z,97217.59
2023-04-02T19:59:43.970Z,97218.23
2023-04-02T20:02:12.395Z,97222.39
2023-04-02T20:04:41.173Z,97221.48
2023-04-02T20:07:09.157Z,97219.95
2023-04-02T20:09:37.352Z,97222.80
2023-04-02T20:12:05.646Z,97219.45
2023-04-02T20:14:33.709Z,97218.96
2023-04-02T20:17:02.103Z,97219.65
2023-04-02T20:19:30.699Z,97218.05
2023-04-02T20:21:59.028Z,97220.42
2023-04-02T20:24:27.520Z,97221.58
2023-04-02T20:26:55.926Z,97218.70
2023-04-02T20:29:28.208Z,97222.23
2023-04-02T20:31:57.032Z,97224.67
2023-04-02T20:34:25.163Z,97223.11
2023-04-02T20:36:53.736Z,97227.91
2023-04-02T20:39:22.355Z,97232.06
2023-04-02T20:41:50.670Z,97232.81
2023-04-02T20:44:18.725Z,97239.85
2023-04-02T20:46:47.287Z,97242.42
2023-04-02T20:49:15.741Z,97247.58
2023-04-02T20:51:46.522Z,97252.79
2023-04-02T20:54:15.782Z,97257.34
2023-04-02T20:56:45.527Z,97254.55
2023-04-02T20:59:14.800Z,97255.02
2023-04-02T21:01:42.869Z,97256.33
2023-04-02T21:04:11.338Z,97260.02
2023-04-02T21:06:40.280Z,97266.07
2023-04-02T21:09:18.455Z,97266.02
2023-04-02T21:11:46.510Z,97265.64
2023-04-02T21:14:14.660Z,97267.32
2023-04-02T21:16:43.138Z,97273.41
2023-04-02T21:19:11.290Z,97272.91
2023-04-02T21:21:39.699Z,97270.89
2023-04-02T21:24:08.639Z,97273.99
2023-04-02T21:26:38.857Z,97271.67
2023-04-02T21:29:06.962Z,97274.26
2023-04-02T21:31:37.207Z,97273.24
2023-04-02T21:34:06.182Z,97272.05
2023-04-02T21:36:36.353Z,97265.66
2023-04-02T21:39:06.700Z,97268.50
2023-04-02T21:41:41.768Z,97266.60
2023-04-02T21:44:13.657Z,97268.45
2023-04-02T21:46:45.268Z,97270.77
2023-04-02T21:49:18.361Z,97269.70
2023-04-02T21:51:46.788Z,97267.31
2023-04-02T21:54:16.902Z,97271.81
2023-04-02T21:56:46.404Z,97270.21
2023-04-02T21:59:15.894Z,97268.36
2023-04-02T22:01:47.027Z,97270.48
2023-04-02T22:04:20.799Z,97273.45
2023-04-02T22:06:49.000Z,97273.14
2023-04-02T22:09:19.334Z,97274.33
2023-04-02T22:11:56.115Z,97273.23
2023-04-02T22:14:24.577Z,97274.86
2023-04-02T22:16:52.869Z,97273.21
2023-04-02T22:19:21.653Z,97275.66
2023-04-02T22:21:49.820Z,97274.79
2023-04-02T22:24:25.496Z,97277.66
2023-04-02T22:26:55.050Z,97275.61
2023-04-02T22:29:23.294Z,97277.05
2023-04-02T22:31:52.047Z,97279.58
2023-04-02T22:34:20.979Z,97280.19
2023-04-02T22:36:49.047Z,97281.03
2023-04-02T22:39:17.665Z,97279.76
2023-04-02T22:41:46.517Z,97287.55
2023-04-02T22:44:14.701Z,97285.20
2023-04-02T22:46:43.211Z,97282.24
2023-04-02T22:49:11.763Z,97288.08
2023-04-02T22:51:40.110Z,97289.48
2023-04-02T22:54:08.745Z,97291.36
2023-04-02T22:56:37.567Z,97294.84
2023-04-02T22:59:06.145Z,97291.81
2023-04-02T23:01:34.764Z,97292.05
2023-04-02T23:04:05.336Z,97293.02
2023-04-02T23:06:35.067Z,97287.85
2023-04-02T23:09:04.248Z,97288.20
2023-04-02T23:11:34.965Z,97287.16
2023-04-02T23:16:13.480Z,97284.32
2023-04-02T23:18:48.053Z,97290.63
2023-04-02T23:21:17.098Z,97290.95
2023-04-02T23:23:45.727Z,97293.81
2023-04-02T23:26:16.251Z,97291.13
2023-04-02T23:28:44.593Z,97293.06
2023-04-02T23:31:15.830Z,97290.73
2023-04-02T23:33:44.053Z,97292.17
2023-04-02T23:36:32.405Z,97294.30
2023-04-02T23:39:04.934Z,97294.42
2023-04-02T23:41:33.307Z,97296.46
2023-04-02T23:44:01.509Z,97294.39
2023-04-02T23:46:30.603Z,97293.73
2023-04-02T23:48:58.995Z,97288.06
2023-04-02T23:51:28.077Z,97286.19
2023-04-02T23:53:56.802Z,97286.40
2023-04-02T23:56:28.890Z,97287.56
2023-04-02T23:58:57.030Z,97285.65
